Time;durP1;ratioP1;P1;durP2;ratioP2;P2;SDS_P1;SDS_P2;PMS_P1;PMS_P2;Temp;Humidity;BMP_temperature;BMP_pressure;BME280_temperature;BME280_humidity;BME280_pressure;Samples;Min_cycle;Max_cycle;Signal;HPM_P1;HPM_P2
2023/05/14 00:02:09;;;;;;;0.10;0.10;;;;;;;;;;5091521;28;20071;-80
2023/05/14 00:04:35;;;;;;;0.10;0.10;;;;;;;;;;5086121;28;20390;-82
2023/05/14 00:07:01;;;;;;;0.10;0.10;;;;;;;;;;5084728;28;20528;-84
2023/05/14 00:09:26;;;;;;;0.10;0.10;;;;;;;;;;5089873;28;20042;-81
2023/05/14 00:11:52;;;;;;;0.10;0.10;;;;;;;;;;5072630;28;20032;-79
2023/05/14 00:14:17;;;;;;;0.10;0.10;;;;;;;;;;5055491;28;20032;-80
2023/05/14 00:16:43;;;;;;;0.10;0.10;;;;;;;;;;5073192;28;20123;-82
2023/05/14 00:19:09;;;;;;;0.10;0.10;;;;;;;;;;5083728;28;20028;-86
2023/05/14 00:21:34;;;;;;;0.17;0.17;;;;;;;;;;5084019;28;20480;-81
2023/05/14 00:24:00;;;;;;;0.10;0.10;;;;;;;;;;5080247;28;20024;-81
2023/05/14 00:26:25;;;;;;;0.10;0.10;;;;;;;;;;5087150;28;20111;-83
2023/05/14 00:28:50;;;;;;;0.10;0.10;;;;;;;;;;5092916;28;20112;-82
2023/05/14 00:31:16;;;;;;;0.10;0.10;;;;;;;;;;5073924;28;20475;-79
2023/05/14 00:33:41;;;;;;;0.10;0.10;;;;;;;;;;5086519;28;20054;-79
2023/05/14 00:36:07;;;;;;;0.10;0.10;;;;;;;;;;5062294;28;20387;-83
2023/05/14 00:38:32;;;;;;;0.20;0.20;;;;;;;;;;5083448;28;20055;-83
2023/05/14 00:40:58;;;;;;;0.10;0.10;;;;;;;;;;5081369;28;20020;-84
2023/05/14 00:43:24;;;;;;;0.13;0.13;;;;;;;;;;5082850;28;20051;-84
2023/05/14 00:45:51;;;;;;;0.13;0.13;;;;;;;;;;5065157;28;20437;-84
2023/05/14 00:48:17;;;;;;;0.52;0.52;;;;;;;;;;5083705;28;20028;-84
2023/05/14 00:50:42;;;;;;;0.20;0.20;;;;;;;;;;5092879;28;20452;-82
2023/05/14 00:53:09;;;;;;;0.10;0.10;;;;;;;;;;5092866;28;20032;-84
2023/05/14 00:55:39;;;;;;;0.10;0.10;;;;;;;;;;5074906;28;20043;-84
2023/05/14 00:58:04;;;;;;;;;;;;;;;;;;5075240;28;20040;-84
2023/05/14 01:00:29;;;;;;;0.10;0.10;;;;;;;;;;5092946;28;19961;-83
2023/05/14 01:02:55;;;;;;;0.10;0.10;;;;;;;;;;5091411;28;20036;-83
2023/05/14 01:05:21;;;;;;;0.10;0.10;;;;;;;;;;5092601;28;20032;-84
2023/05/14 01:08:10;;;;;;;1.05;0.77;;;;;;;;;;5093284;28;20036;-85
2023/05/14 01:10:47;;;;;;;0.20;0.20;;;;;;;;;;5065156;28;20042;-85
2023/05/14 01:13:19;;;;;;;0.10;0.10;;;;;;;;;;5096341;28;20510;-85
2023/05/14 01:15:46;;;;;;;0.10;0.10;;;;;;;;;;5096120;28;20386;-85
2023/05/14 01:18:13;;;;;;;0.10;0.10;;;;;;;;;;5096907;28;20056;-83
2023/05/14 01:20:38;;;;;;;0.30;0.30;;;;;;;;;;5078334;28;20021;-83
2023/05/14 01:23:04;;;;;;;0.10;0.10;;;;;;;;;;5097873;28;20040;-81
2023/05/14 01:25:30;;;;;;;0.17;0.17;;;;;;;;;;5101610;28;20040;-84
2023/05/14 01:28:13;;;;;;;0.10;0.10;;;;;;;;;;5101261;28;20032;-83
2023/05/14 01:30:42;;;;;;;0.20;0.20;;;;;;;;;;5098073;28;20032;-80
2023/05/14 01:33:12;;;;;;;0.10;0.10;;;;;;;;;;5078542;28;20043;-81
2023/05/14 01:35:40;;;;;;;0.10;0.10;;;;;;;;;;5096492;28;20043;-82
2023/05/14 01:38:08;;;;;;;0.63;0.63;;;;;;;;;;5096257;28;20106;-84
2023/05/14 01:40:35;;;;;;;0.10;0.10;;;;;;;;;;5077732;28;20032;-82
2023/05/14 01:43:01;;;;;;;0.10;0.10;;;;;;;;;;5077788;28;20043;-82
2023/05/14 01:45:26;;;;;;;0.10;0.10;;;;;;;;;;5077989;28;20487;-82
2023/05/14 01:47:52;;;;;;;0.10;0.10;;;;;;;;;;5096024;28;20047;-80
2023/05/14 01:50:17;;;;;;;0.10;0.10;;;;;;;;;;5096090;28;20036;-82
2023/05/14 01:52:43;;;;;;;1.73;1.63;;;;;;;;;;5078049;28;20078;-82
2023/05/14 01:55:09;;;;;;;0.28;0.28;;;;;;;;;;5095866;28;20067;-80
2023/05/14 01:57:34;;;;;;;0.10;0.10;;;;;;;;;;5095879;28;20038;-81
2023/05/14 02:00:00;;;;;;;0.10;0.10;;;;;;;;;;5077728;28;20035;-82
2023/05/14 02:02:27;;;;;;;0.10;0.10;;;;;;;;;;5095656;28;20089;-82
2023/05/14 02:04:53;;;;;;;0.20;0.20;;;;;;;;;;5095747;28;20474;-80
2023/05/14 02:07:18;;;;;;;2.92;0.63;;;;;;;;;;5095740;28;20043;-78
2023/05/14 02:09:44;;;;;;;0.25;0.25;;;;;;;;;;5095536;28;20028;-79
2023/05/14 02:12:12;;;;;;;0.10;0.10;;;;;;;;;;5095320;28;20154;-79
2023/05/14 02:14:37;;;;;;;0.20;0.20;;;;;;;;;;5095711;28;20484;-80
2023/05/14 02:17:03;;;;;;;0.20;0.20;;;;;;;;;;5077424;28;20123;-79
2023/05/14 02:19:29;;;;;;;0.10;0.10;;;;;;;;;;5076511;28;20395;-81
2023/05/14 02:21:54;;;;;;;0.15;0.15;;;;;;;;;;5095326;28;20498;-80
2023/05/14 02:24:20;;;;;;;0.17;0.17;;;;;;;;;;5077263;28;20040;-80
2023/05/14 02:26:45;;;;;;;0.20;0.20;;;;;;;;;;5077110;28;20031;-81
2023/05/14 02:29:11;;;;;;;0.10;0.10;;;;;;;;;;5095347;28;20111;-79
2023/05/14 02:31:37;;;;;;;0.10;0.10;;;;;;;;;;5095088;28;20105;-80
2023/05/14 02:34:03;;;;;;;0.55;0.55;;;;;;;;;;5095353;28;20036;-80
2023/05/14 02:36:28;;;;;;;0.20;0.20;;;;;;;;;;5076997;28;20081;-81
2023/05/14 02:38:53;;;;;;;0.13;0.13;;;;;;;;;;5076887;28;20032;-82
2023/05/14 02:41:20;;;;;;;0.20;0.20;;;;;;;;;;5076672;28;20426;-82
2023/05/14 02:43:45;;;;;;;0.10;0.10;;;;;;;;;;5077058;28;20032;-76
2023/05/14 02:46:11;;;;;;;0.10;0.10;;;;;;;;;;5076880;28;20067;-79
2023/05/14 02:48:36;;;;;;;0.10;0.10;;;;;;;;;;5094844;28;20035;-80
2023/05/14 02:51:02;;;;;;;0.20;0.20;;;;;;;;;;5060113;28;20032;-80
2023/05/14 02:53:27;;;;;;;0.13;0.13;;;;;;;;;;5076773;28;20115;-79
2023/05/14 02:55:52;;;;;;;0.10;0.10;;;;;;;;;;5094539;28;20075;-80
2023/05/14 02:58:18;;;;;;;0.20;0.20;;;;;;;;;;5094789;28;20069;-80
2023/05/14 03:00:43;;;;;;;0.13;0.13;;;;;;;;;;5076771;28;20020;-81
2023/05/14 03:03:09;;;;;;;0.20;0.20;;;;;;;;;;5071959;28;20436;-80
2023/05/14 03:05:34;;;;;;;0.20;0.20;;;;;;;;;;5072649;28;20056;-80
2023/05/14 03:08:00;;;;;;;0.55;0.50;;;;;;;;;;5090578;28;20066;-83
2023/05/14 03:10:25;;;;;;;0.32;0.32;;;;;;;;;;5090587;28;20047;-81
2023/05/14 03:12:51;;;;;;;0.10;0.10;;;;;;;;;;5072130;28;20047;-81
2023/05/14 03:15:16;;;;;;;0.30;0.30;;;;;;;;;;5055935;28;20032;-82
2023/05/14 03:17:41;;;;;;;0.10;0.10;;;;;;;;;;5090562;28;20498;-81
2023/05/14 03:20:07;;;;;;;0.10;0.10;;;;;;;;;;5090201;28;20028;-83
2023/05/14 03:22:34;;;;;;;0.10;0.10;;;;;;;;;;5072057;28;20032;-83
2023/05/14 03:25:00;;;;;;;0.20;0.20;;;;;;;;;;5090376;28;20032;-83
2023/05/14 03:27:25;;;;;;;0.10;0.10;;;;;;;;;;5072237;28;20032;-77
2023/05/14 03:29:50;;;;;;;0.20;0.20;;;;;;;;;;5072427;28;20547;-83
2023/05/14 03:32:16;;;;;;;0.20;0.20;;;;;;;;;;5072154;28;20032;-83
2023/05/14 03:34:43;;;;;;;0.10;0.10;;;;;;;;;;5094656;28;20023;-83
2023/05/14 03:37:09;;;;;;;0.20;0.20;;;;;;;;;;5095159;28;20549;-80
2023/05/14 03:39:35;;;;;;;2.55;0.70;;;;;;;;;;5075419;28;20063;-82
2023/05/14 03:42:03;;;;;;;2.15;0.93;;;;;;;;;;5090200;28;20039;-81
2023/05/14 03:44:28;;;;;;;0.17;0.17;;;;;;;;;;5072313;28;20116;-85
2023/05/14 03:46:54;;;;;;;0.10;0.10;;;;;;;;;;5090616;28;20093;-83
2023/05/14 03:49:20;;;;;;;0.47;0.43;;;;;;;;;;5072237;28;20040;-82
2023/05/14 03:51:45;;;;;;;2.83;0.55;;;;;;;;;;5090295;28;20039;-79
2023/05/14 03:54:11;;;;;;;0.20;0.20;;;;;;;;;;5089938;28;20107;-84
2023/05/14 03:56:36;;;;;;;0.20;0.20;;;;;;;;;;5071275;28;20028;-84
2023/05/14 03:59:02;;;;;;;0.10;0.10;;;;;;;;;;5071836;28;20036;-84
2023/05/14 04:01:27;;;;;;;0.10;0.10;;;;;;;;;;5090061;28;20140;-85
2023/05/14 04:03:52;;;;;;;0.10;0.10;;;;;;;;;;5089562;28;20036;-79
2023/05/14 04:06:18;;;;;;;0.10;0.10;;;;;;;;;;5070394;28;20039;-84
2023/05/14 04:08:44;;;;;;;0.20;0.20;;;;;;;;;;5071588;28;20032;-85
2023/05/14 04:11:09;;;;;;;0.10;0.10;;;;;;;;;;5089493;28;20398;-84
2023/05/14 04:13:35;;;;;;;0.10;0.10;;;;;;;;;;5071885;28;20039;-85
2023/05/14 04:16:00;;;;;;;0.10;0.10;;;;;;;;;;5089103;28;20483;-84
2023/05/14 04:18:25;;;;;;;0.10;0.10;;;;;;;;;;5077564;28;20566;-81
2023/05/14 04:20:51;;;;;;;0.10;0.10;;;;;;;;;;5069629;28;20036;-80
2023/05/14 04:23:16;;;;;;;0.10;0.10;;;;;;;;;;5067974;28;20045;-83
2023/05/14 04:25:42;;;;;;;0.10;0.10;;;;;;;;;;5069002;28;20029;-82
2023/05/14 04:28:07;;;;;;;0.10;0.10;;;;;;;;;;5068744;28;20067;-80
2023/05/14 04:30:32;;;;;;;0.00;0.00;;;;;;;;;;5069214;28;20529;-80
2023/05/14 04:32:58;;;;;;;0.10;0.10;;;;;;;;;;5069013;28;20028;-79
2023/05/14 04:35:23;;;;;;;0.10;0.10;;;;;;;;;;5069284;28;20033;-80
2023/05/14 04:37:48;;;;;;;0.10;0.10;;;;;;;;;;5068821;28;20035;-80
2023/05/14 04:40:15;;;;;;;0.10;0.10;;;;;;;;;;5068942;28;20515;-81
2023/05/14 04:42:41;;;;;;;0.10;0.10;;;;;;;;;;5068009;28;20033;-77
2023/05/14 04:45:07;;;;;;;0.10;0.10;;;;;;;;;;5070045;28;20136;-81
2023/05/14 04:47:33;;;;;;;0.10;0.10;;;;;;;;;;5089305;28;20471;-84
2023/05/14 04:49:58;;;;;;;0.10;0.10;;;;;;;;;;5088836;28;20043;-83
2023/05/14 04:52:24;;;;;;;0.17;0.17;;;;;;;;;;5088737;28;20496;-82
2023/05/14 04:54:49;;;;;;;0.10;0.10;;;;;;;;;;5087743;28;20071;-77
2023/05/14 04:57:15;;;;;;;0.20;0.20;;;;;;;;;;5088510;28;20115;-80
2023/05/14 04:59:40;;;;;;;0.52;0.52;;;;;;;;;;5088963;28;20097;-81
2023/05/14 05:02:06;;;;;;;0.30;0.30;;;;;;;;;;5085854;28;20443;-82
2023/05/14 05:04:31;;;;;;;1.00;0.85;;;;;;;;;;5089027;28;20388;-81
2023/05/14 05:06:56;;;;;;;0.68;0.50;;;;;;;;;;5087429;28;20028;-81
2023/05/14 05:09:22;;;;;;;0.10;0.10;;;;;;;;;;5088620;28;20427;-84
2023/05/14 05:11:47;;;;;;;3.83;0.73;;;;;;;;;;5088252;28;20483;-82
2023/05/14 05:14:13;;;;;;;0.10;0.10;;;;;;;;;;5085733;28;20486;-77
2023/05/14 05:16:38;;;;;;;0.10;0.10;;;;;;;;;;5080693;28;20044;-83
2023/05/14 05:19:03;;;;;;;0.20;0.20;;;;;;;;;;5086919;28;20036;-79
2023/05/14 05:21:29;;;;;;;1.33;1.10;;;;;;;;;;5087443;28;20036;-80
2023/05/14 05:23:54;;;;;;;0.10;0.10;;;;;;;;;;5088488;28;20038;-84
2023/05/14 05:26:21;;;;;;;0.10;0.10;;;;;;;;;;5088713;28;20487;-85
2023/05/14 05:28:46;;;;;;;0.10;0.10;;;;;;;;;;5088672;28;20051;-84
2023/05/14 05:31:11;;;;;;;0.38;0.38;;;;;;;;;;5067736;28;20423;-80
2023/05/14 05:33:37;;;;;;;0.25;0.25;;;;;;;;;;5073358;28;20116;-85
2023/05/14 05:36:02;;;;;;;0.85;0.30;;;;;;;;;;5068038;28;20088;-82
2023/05/14 05:38:28;;;;;;;0.10;0.10;;;;;;;;;;5068239;28;20032;-81
2023/05/14 05:40:53;;;;;;;0.10;0.10;;;;;;;;;;5068310;28;20028;-79
2023/05/14 05:43:19;;;;;;;0.10;0.10;;;;;;;;;;5077841;28;20028;-81
2023/05/14 05:45:44;;;;;;;0.10;0.10;;;;;;;;;;5085297;28;20035;-78
2023/05/14 05:48:10;;;;;;;0.40;0.40;;;;;;;;;;5073019;28;20039;-77
2023/05/14 05:50:35;;;;;;;0.57;0.57;;;;;;;;;;5075755;28;20483;-77
2023/05/14 05:53:01;;;;;;;0.10;0.10;;;;;;;;;;5087752;28;20036;-76
2023/05/14 05:55:27;;;;;;;0.10;0.10;;;;;;;;;;5090553;28;20032;-77
2023/05/14 05:57:52;;;;;;;2.08;0.95;;;;;;;;;;5090538;28;20043;-76
2023/05/14 06:00:18;;;;;;;0.22;0.22;;;;;;;;;;5090600;28;20157;-77
2023/05/14 06:02:43;;;;;;;0.10;0.10;;;;;;;;;;5071672;28;20518;-75
2023/05/14 06:05:09;;;;;;;0.32;0.32;;;;;;;;;;5074952;28;20407;-76
2023/05/14 06:07:35;;;;;;;0.30;0.30;;;;;;;;;;5091737;28;20035;-80
2023/05/14 06:10:00;;;;;;;0.10;0.10;;;;;;;;;;5091634;28;20365;-80
2023/05/14 06:12:26;;;;;;;0.10;0.10;;;;;;;;;;5091519;28;20039;-79
2023/05/14 06:14:54;;;;;;;0.10;0.10;;;;;;;;;;5091598;28;20399;-85
2023/05/14 06:17:19;;;;;;;0.10;0.10;;;;;;;;;;5088114;28;20040;-76
2023/05/14 06:19:44;;;;;;;0.30;0.30;;;;;;;;;;5090602;28;20126;-76
2023/05/14 06:22:10;;;;;;;5.43;5.15;;;;;;;;;;5087283;28;20396;-81
2023/05/14 06:24:35;;;;;;;0.10;0.10;;;;;;;;;;5091740;28;20071;-86
2023/05/14 06:27:00;;;;;;;0.10;0.10;;;;;;;;;;5090857;28;20039;-81
2023/05/14 06:29:26;;;;;;;0.20;0.20;;;;;;;;;;5090009;28;20032;-80
2023/05/14 06:31:51;;;;;;;0.20;0.20;;;;;;;;;;5087613;28;20024;-83
2023/05/14 06:34:16;;;;;;;0.77;0.77;;;;;;;;;;5077355;28;20032;-81
2023/05/14 06:36:42;;;;;;;0.15;0.15;;;;;;;;;;5078302;28;20116;-83
2023/05/14 06:39:07;;;;;;;0.50;0.50;;;;;;;;;;5091213;28;20115;-81
2023/05/14 06:41:33;;;;;;;0.55;0.55;;;;;;;;;;5089622;28;20044;-81
2023/05/14 06:43:58;;;;;;;0.20;0.20;;;;;;;;;;5089458;28;20414;-83
2023/05/14 06:46:23;;;;;;;0.20;0.20;;;;;;;;;;5088576;28;20024;-82
2023/05/14 06:48:49;;;;;;;0.20;0.20;;;;;;;;;;5091063;28;20024;-82
2023/05/14 06:51:14;;;;;;;0.20;0.20;;;;;;;;;;5089719;28;20514;-81
2023/05/14 06:53:40;;;;;;;0.13;0.13;;;;;;;;;;5090626;28;20486;-82
2023/05/14 06:56:05;;;;;;;2.22;1.75;;;;;;;;;;5088405;28;20478;-84
2023/05/14 06:58:31;;;;;;;1.65;1.13;;;;;;;;;;5090562;28;20036;-80
2023/05/14 07:00:57;;;;;;;0.10;0.10;;;;;;;;;;5086886;28;20036;-76
2023/05/14 07:03:22;;;;;;;0.15;0.15;;;;;;;;;;5070635;28;20185;-76
2023/05/14 07:05:48;;;;;;;0.20;0.20;;;;;;;;;;5070738;28;20115;-75
2023/05/14 07:08:13;;;;;;;0.43;0.43;;;;;;;;;;5091040;28;20040;-76
2023/05/14 07:10:39;;;;;;;0.20;0.20;;;;;;;;;;5090604;28;20036;-75
2023/05/14 07:13:04;;;;;;;0.20;0.20;;;;;;;;;;5090712;28;20804;-76
2023/05/14 07:15:30;;;;;;;0.10;0.10;;;;;;;;;;5089246;28;20031;-76
2023/05/14 07:17:55;;;;;;;0.10;0.10;;;;;;;;;;5083365;28;20384;-74
2023/05/14 07:20:22;;;;;;;0.20;0.20;;;;;;;;;;5089939;28;20112;-77
2023/05/14 07:22:48;;;;;;;0.30;0.30;;;;;;;;;;5090371;28;20063;-75
2023/05/14 07:25:13;;;;;;;0.55;0.55;;;;;;;;;;5071695;28;20133;-78
2023/05/14 07:27:39;;;;;;;0.22;0.22;;;;;;;;;;5089746;28;20495;-78
2023/05/14 07:30:05;;;;;;;0.20;0.20;;;;;;;;;;5090022;28;20022;-77
2023/05/14 07:32:30;;;;;;;0.57;0.50;;;;;;;;;;5090596;28;20529;-79
2023/05/14 07:34:55;;;;;;;1.45;0.90;;;;;;;;;;5090041;28;20073;-79
2023/05/14 07:37:21;;;;;;;5.28;4.88;;;;;;;;;;5072620;28;20040;-81
2023/05/14 07:39:47;;;;;;;0.30;0.30;;;;;;;;;;5088775;28;20102;-81
2023/05/14 07:42:12;;;;;;;9.93;0.90;;;;;;;;;;5089036;28;20101;-79
2023/05/14 07:44:37;;;;;;;1.33;0.90;;;;;;;;;;5076904;28;20433;-80
2023/05/14 07:47:03;;;;;;;0.20;0.20;;;;;;;;;;5087963;28;20032;-78
2023/05/14 07:49:28;;;;;;;0.68;0.68;;;;;;;;;;5088609;28;20110;-81
2023/05/14 07:51:54;;;;;;;0.20;0.20;;;;;;;;;;5088599;28;20368;-81
2023/05/14 07:54:19;;;;;;;0.20;0.20;;;;;;;;;;5091376;28;20047;-77
2023/05/14 07:56:45;;;;;;;0.45;0.43;;;;;;;;;;5083815;28;20047;-77
2023/05/14 07:59:11;;;;;;;0.82;0.75;;;;;;;;;;5088131;28;20507;-76
2023/05/14 08:01:36;;;;;;;0.95;0.73;;;;;;;;;;5061052;28;20028;-79
2023/05/14 08:04:02;;;;;;;0.25;0.25;;;;;;;;;;5078210;28;20036;-70
2023/05/14 08:06:28;;;;;;;0.20;0.20;;;;;;;;;;5060366;28;20608;-67
2023/05/14 08:08:54;;;;;;;0.20;0.20;;;;;;;;;;5083357;28;20032;-67
2023/05/14 08:11:21;;;;;;;0.20;0.20;;;;;;;;;;5089215;28;20128;-68
2023/05/14 08:13:46;;;;;;;1.85;0.75;;;;;;;;;;5088779;28;20031;-71
2023/05/14 08:16:12;;;;;;;0.20;0.20;;;;;;;;;;5054898;28;20126;-69
2023/05/14 08:18:37;;;;;;;0.30;0.30;;;;;;;;;;5085790;28;20024;-76
2023/05/14 08:21:03;;;;;;;0.30;0.30;;;;;;;;;;5069209;28;20036;-76
2023/05/14 08:23:28;;;;;;;0.20;0.20;;;;;;;;;;5089194;28;20063;-74
2023/05/14 08:25:54;;;;;;;0.20;0.20;;;;;;;;;;5088835;28;20464;-74
2023/05/14 08:28:19;;;;;;;0.30;0.30;;;;;;;;;;5087903;28;20036;-75
2023/05/14 08:30:45;;;;;;;2.03;0.70;;;;;;;;;;5089265;28;20127;-75
2023/05/14 08:33:10;;;;;;;0.28;0.28;;;;;;;;;;5089375;28;20028;-76
2023/05/14 08:35:36;;;;;;;1.15;0.88;;;;;;;;;;5086965;28;20069;-74
2023/05/14 08:38:01;;;;;;;2.13;0.73;;;;;;;;;;5070373;28;20554;-74
2023/05/14 08:40:29;;;;;;;1.98;0.73;;;;;;;;;;5088970;28;20108;-72
2023/05/14 08:42:55;;;;;;;0.57;0.57;;;;;;;;;;5088020;28;20025;-73
2023/05/14 08:45:27;;;;;;;15.68;4.60;;;;;;;;;;5088782;28;20036;-74
2023/05/14 08:47:54;;;;;;;0.70;0.65;;;;;;;;;;5088644;28;20036;-73
2023/05/14 08:50:21;;;;;;;0.80;0.52;;;;;;;;;;5088891;28;20361;-73
2023/05/14 08:52:47;;;;;;;3.35;0.90;;;;;;;;;;5088564;28;20032;-73
2023/05/14 08:55:12;;;;;;;3.03;0.80;;;;;;;;;;5086409;28;20047;-74
2023/05/14 08:57:38;;;;;;;0.30;0.30;;;;;;;;;;5086986;28;20031;-75
2023/05/14 09:00:07;;;;;;;1.15;0.45;;;;;;;;;;5086538;28;20016;-74
2023/05/14 09:02:33;;;;;;;;;;;;;;;;;;5087239;28;20050;-74
2023/05/14 09:04:59;;;;;;;0.80;0.55;;;;;;;;;;5049081;28;19912;-74
2023/05/14 09:07:25;;;;;;;1.58;1.48;;;;;;;;;;5049120;28;20029;-77
2023/05/14 09:09:51;;;;;;;0.88;0.57;;;;;;;;;;5049683;28;20043;-74
2023/05/14 09:12:17;;;;;;;0.98;0.65;;;;;;;;;;5068675;28;20029;-74
2023/05/14 09:14:43;;;;;;;0.32;0.32;;;;;;;;;;5067740;28;20391;-75
2023/05/14 09:17:11;;;;;;;0.82;0.68;;;;;;;;;;5065770;28;20109;-75
2023/05/14 09:19:39;;;;;;;0.80;0.60;;;;;;;;;;5075204;28;20039;-74
2023/05/14 09:22:07;;;;;;;1.05;0.65;;;;;;;;;;5086223;28;20028;-74
2023/05/14 09:24:32;;;;;;;0.30;0.30;;;;;;;;;;5085541;28;20027;-74
2023/05/14 09:26:57;;;;;;;1.15;0.57;;;;;;;;;;5082557;28;20028;-75
2023/05/14 09:29:29;;;;;;;0.90;0.80;;;;;;;;;;5076044;28;20483;-71
2023/05/14 09:31:56;;;;;;;0.75;0.52;;;;;;;;;;5071674;28;20031;-68
2023/05/14 09:34:24;;;;;;;0.40;0.40;;;;;;;;;;5071652;28;20091;-71
2023/05/14 09:36:53;;;;;;;2.53;0.80;;;;;;;;;;5087048;28;20043;-70
2023/05/14 09:39:19;;;;;;;0.40;0.40;;;;;;;;;;5073687;28;20028;-71
2023/05/14 09:41:44;;;;;;;5.35;1.27;;;;;;;;;;5089909;28;20032;-70
2023/05/14 09:44:11;;;;;;;2.47;1.10;;;;;;;;;;5053187;28;20028;-72
2023/05/14 09:46:37;;;;;;;2.35;0.88;;;;;;;;;;5070949;28;20028;-71
2023/05/14 09:49:02;;;;;;;2.25;1.23;;;;;;;;;;5070722;28;20048;-70
2023/05/14 09:51:30;;;;;;;0.68;0.57;;;;;;;;;;5070391;28;20470;-72
2023/05/14 09:53:56;;;;;;;5.15;1.55;;;;;;;;;;5071641;28;20114;-71
2023/05/14 09:56:22;;;;;;;0.50;0.43;;;;;;;;;;5053246;28;20052;-71
2023/05/14 09:58:48;;;;;;;0.80;0.50;;;;;;;;;;5072817;28;20028;-74
2023/05/14 10:01:16;;;;;;;0.40;0.40;;;;;;;;;;5074412;28;20387;-70
2023/05/14 10:03:42;;;;;;;1.58;0.85;;;;;;;;;;5072634;28;20059;-71
2023/05/14 10:06:09;;;;;;;5.00;1.55;;;;;;;;;;5071835;28;20064;-70
2023/05/14 10:08:35;;;;;;;2.33;0.85;;;;;;;;;;5071562;28;20039;-71
2023/05/14 10:11:02;;;;;;;0.20;0.20;;;;;;;;;;5071599;28;20032;-71
2023/05/14 10:13:29;;;;;;;0.73;0.73;;;;;;;;;;5071412;28;20428;-71
2023/05/14 10:16:04;;;;;;;7.93;0.77;;;;;;;;;;5070872;28;20064;-71
2023/05/14 10:18:30;;;;;;;0.50;0.40;;;;;;;;;;5070984;28;20062;-72
2023/05/14 10:21:06;;;;;;;0.50;0.50;;;;;;;;;;5069917;28;20032;-71
2023/05/14 10:23:32;;;;;;;0.30;0.30;;;;;;;;;;5069657;28;20028;-72
2023/05/14 10:25:58;;;;;;;2.15;0.70;;;;;;;;;;5052116;28;20044;-71
2023/05/14 10:28:24;;;;;;;0.85;0.60;;;;;;;;;;5069776;28;20072;-71
2023/05/14 10:30:49;;;;;;;0.45;0.35;;;;;;;;;;5069850;28;20028;-70
2023/05/14 10:33:17;;;;;;;0.77;0.65;;;;;;;;;;5057832;28;20111;-71
2023/05/14 10:35:51;;;;;;;0.20;0.20;;;;;;;;;;5076947;28;20507;-71
2023/05/14 10:38:21;;;;;;;0.35;0.35;;;;;;;;;;5062584;28;20549;-72
2023/05/14 10:40:46;;;;;;;0.40;0.40;;;;;;;;;;5080404;28;20029;-72
2023/05/14 10:43:13;;;;;;;0.30;0.30;;;;;;;;;;5078043;28;20039;-72
2023/05/14 10:45:40;;;;;;;1.30;0.73;;;;;;;;;;5082992;28;20024;-71
2023/05/14 10:48:06;;;;;;;2.13;0.90;;;;;;;;;;5074333;28;20029;-70
2023/05/14 10:50:31;;;;;;;3.13;0.80;;;;;;;;;;5078949;28;20518;-71
2023/05/14 10:52:57;;;;;;;1.80;0.45;;;;;;;;;;5083076;28;20085;-70
2023/05/14 10:55:23;;;;;;;1.45;0.55;;;;;;;;;;5090261;28;20044;-71
2023/05/14 10:57:51;;;;;;;2.83;0.95;;;;;;;;;;5085081;28;20111;-71
2023/05/14 11:00:16;;;;;;;2.42;0.80;;;;;;;;;;5054421;28;20089;-70
2023/05/14 11:02:43;;;;;;;4.18;0.95;;;;;;;;;;5070158;28;20037;-70
2023/05/14 11:05:09;;;;;;;3.28;0.68;;;;;;;;;;5084222;28;20533;-70
2023/05/14 11:07:39;;;;;;;1.77;0.80;;;;;;;;;;5078083;28;20039;-71
2023/05/14 11:10:08;;;;;;;1.17;0.57;;;;;;;;;;5072676;28;20135;-70
2023/05/14 11:12:35;;;;;;;1.83;1.10;;;;;;;;;;5073442;28;20032;-71
2023/05/14 11:15:01;;;;;;;1.48;0.90;;;;;;;;;;5076902;28;20119;-72
2023/05/14 11:17:27;;;;;;;3.25;1.10;;;;;;;;;;5082659;28;20025;-71
2023/05/14 11:19:53;;;;;;;0.20;0.20;;;;;;;;;;5074802;28;20542;-72
2023/05/14 11:22:18;;;;;;;0.35;0.35;;;;;;;;;;5088594;28;20060;-71
2023/05/14 11:24:44;;;;;;;1.63;0.93;;;;;;;;;;5088749;28;20471;-70
2023/05/14 11:27:10;;;;;;;0.20;0.20;;;;;;;;;;5089015;28;20028;-71
2023/05/14 11:29:36;;;;;;;0.50;0.50;;;;;;;;;;5069275;28;20520;-72
2023/05/14 11:32:04;;;;;;;2.03;0.65;;;;;;;;;;5070402;28;20495;-73
2023/05/14 11:34:29;;;;;;;0.57;0.52;;;;;;;;;;5069982;28;20036;-72
2023/05/14 11:36:54;;;;;;;0.20;0.20;;;;;;;;;;5088340;28;20036;-73
2023/05/14 11:39:20;;;;;;;0.65;0.50;;;;;;;;;;5069969;28;20044;-70
2023/05/14 11:41:45;;;;;;;0.50;0.50;;;;;;;;;;5087506;28;20030;-72
2023/05/14 11:44:11;;;;;;;0.50;0.50;;;;;;;;;;5087986;28;20032;-72
2023/05/14 11:46:36;;;;;;;1.00;0.77;;;;;;;;;;5088125;28;20028;-72
2023/05/14 11:49:05;;;;;;;1.63;0.60;;;;;;;;;;5087788;28;20120;-71
2023/05/14 11:51:31;;;;;;;0.50;0.40;;;;;;;;;;5088317;28;20039;-72
2023/05/14 11:53:57;;;;;;;0.77;0.73;;;;;;;;;;5088171;28;20028;-71
2023/05/14 11:56:23;;;;;;;1.50;0.82;;;;;;;;;;5089929;28;20479;-70
2023/05/14 11:58:54;;;;;;;0.45;0.45;;;;;;;;;;5089781;28;20086;-71
2023/05/14 12:01:19;;;;;;;1.52;0.80;;;;;;;;;;5089756;28;20032;-71
2023/05/14 12:03:45;;;;;;;1.48;0.68;;;;;;;;;;5084365;28;20035;-72
2023/05/14 12:06:10;;;;;;;2.92;0.43;;;;;;;;;;5092169;28;20126;-71
2023/05/14 12:08:36;;;;;;;1.75;0.77;;;;;;;;;;5093018;28;20057;-71
2023/05/14 12:11:01;;;;;;;2.42;0.75;;;;;;;;;;5091043;28;20468;-71
2023/05/14 12:13:28;;;;;;;2.60;0.88;;;;;;;;;;5090291;28;20040;-70
2023/05/14 12:16:01;;;;;;;0.82;0.60;;;;;;;;;;5090078;28;20063;-71
2023/05/14 12:18:27;;;;;;;2.47;0.77;;;;;;;;;;5089649;28;20111;-71
2023/05/14 12:20:53;;;;;;;0.45;0.40;;;;;;;;;;5089517;28;20036;-71
2023/05/14 12:23:31;;;;;;;1.45;1.02;;;;;;;;;;5089294;28;20102;-70
2023/05/14 12:26:04;;;;;;;0.80;0.40;;;;;;;;;;5089614;28;20046;-70
2023/05/14 12:28:30;;;;;;;0.20;0.20;;;;;;;;;;5089599;28;20398;-70
2023/05/14 12:30:56;;;;;;;3.10;0.85;;;;;;;;;;5089474;28;20032;-70
2023/05/14 12:33:22;;;;;;;1.50;1.40;;;;;;;;;;5089569;28;20040;-71
2023/05/14 12:35:48;;;;;;;1.20;0.60;;;;;;;;;;5089336;28;20433;-71
2023/05/14 12:38:13;;;;;;;1.35;0.90;;;;;;;;;;5089140;28;20031;-69
2023/05/14 12:40:39;;;;;;;0.70;0.50;;;;;;;;;;5089300;28;20941;-71
2023/05/14 12:43:04;;;;;;;0.70;0.60;;;;;;;;;;5089209;28;20391;-70
2023/05/14 12:45:29;;;;;;;1.17;0.57;;;;;;;;;;5089315;28;20073;-71
2023/05/14 12:47:55;;;;;;;1.45;1.05;;;;;;;;;;5070849;28;20114;-70
2023/05/14 12:50:20;;;;;;;0.73;0.65;;;;;;;;;;5088861;28;20024;-71
2023/05/14 12:52:46;;;;;;;0.30;0.30;;;;;;;;;;5089378;28;20036;-72
2023/05/14 12:55:11;;;;;;;0.20;0.20;;;;;;;;;;5088921;28;20490;-70
2023/05/14 12:57:37;;;;;;;0.30;0.30;;;;;;;;;;5089176;28;20032;-71
2023/05/14 13:00:05;;;;;;;0.47;0.40;;;;;;;;;;5088711;28;20575;-71
2023/05/14 13:02:31;;;;;;;2.20;1.02;;;;;;;;;;5088996;28;20920;-71
2023/05/14 13:04:56;;;;;;;1.27;0.75;;;;;;;;;;5093523;28;20024;-71
2023/05/14 13:07:21;;;;;;;0.63;0.45;;;;;;;;;;5077896;28;20055;-71
2023/05/14 13:09:47;;;;;;;1.15;0.68;;;;;;;;;;5077499;28;20213;-72
2023/05/14 13:12:12;;;;;;;1.25;0.57;;;;;;;;;;5095559;28;20040;-72
2023/05/14 13:14:38;;;;;;;3.45;0.65;;;;;;;;;;5077051;28;20031;-71
2023/05/14 13:17:04;;;;;;;0.50;0.50;;;;;;;;;;5095452;28;20051;-74
2023/05/14 13:19:29;;;;;;;1.65;0.65;;;;;;;;;;5077718;28;20064;-72
2023/05/14 13:21:55;;;;;;;1.58;0.80;;;;;;;;;;5095406;28;20328;-71
2023/05/14 13:24:20;;;;;;;2.58;0.82;;;;;;;;;;5077195;28;20071;-72
2023/05/14 13:26:45;;;;;;;0.70;0.50;;;;;;;;;;5095108;28;20028;-75
2023/05/14 13:29:11;;;;;;;0.20;0.20;;;;;;;;;;5095123;28;20130;-71
2023/05/14 13:31:36;;;;;;;0.30;0.30;;;;;;;;;;5095229;28;20123;-71
2023/05/14 13:34:02;;;;;;;3.60;0.60;;;;;;;;;;5076990;28;20028;-72
2023/05/14 13:36:27;;;;;;;1.40;0.88;;;;;;;;;;5094886;28;20039;-74
2023/05/14 13:38:53;;;;;;;1.90;0.95;;;;;;;;;;5095681;28;20570;-72
2023/05/14 13:41:18;;;;;;;0.45;0.40;;;;;;;;;;5095255;28;20028;-71
2023/05/14 13:43:43;;;;;;;1.42;0.90;;;;;;;;;;5095349;28;20937;-71
2023/05/14 13:46:09;;;;;;;1.00;0.40;;;;;;;;;;5094981;28;20539;-71
2023/05/14 13:48:36;;;;;;;0.32;0.32;;;;;;;;;;5076811;28;20093;-71
2023/05/14 13:51:01;;;;;;;1.95;0.85;;;;;;;;;;5095033;28;20023;-71
2023/05/14 13:53:27;;;;;;;0.40;0.40;;;;;;;;;;5095029;28;20425;-71
2023/05/14 13:55:57;;;;;;;0.30;0.30;;;;;;;;;;5094863;28;20475;-70
2023/05/14 13:58:23;;;;;;;0.57;0.45;;;;;;;;;;5094634;28;20444;-71
2023/05/14 14:00:49;;;;;;;7.70;0.88;;;;;;;;;;5094595;28;20028;-71
2023/05/14 14:03:14;;;;;;;0.50;0.50;;;;;;;;;;5076664;28;20132;-71
2023/05/14 14:05:40;;;;;;;0.55;0.40;;;;;;;;;;5094870;28;20036;-73
2023/05/14 14:08:05;;;;;;;5.53;0.82;;;;;;;;;;5095103;28;20061;-71
2023/05/14 14:10:30;;;;;;;0.95;0.40;;;;;;;;;;5094695;28;20421;-71
2023/05/14 14:12:56;;;;;;;1.65;0.85;;;;;;;;;;5094677;28;20062;-72
2023/05/14 14:15:21;;;;;;;1.40;0.82;;;;;;;;;;5093095;28;20063;-72
2023/05/14 14:17:47;;;;;;;2.45;0.95;;;;;;;;;;5091419;28;20367;-71
2023/05/14 14:20:13;;;;;;;0.95;0.50;;;;;;;;;;5094863;28;20093;-71
2023/05/14 14:22:39;;;;;;;1.85;0.75;;;;;;;;;;5095348;28;20032;-73
2023/05/14 14:25:06;;;;;;;1.63;0.85;;;;;;;;;;5094794;28;20035;-72
2023/05/14 14:27:33;;;;;;;1.13;0.68;;;;;;;;;;5092540;28;20089;-73
2023/05/14 14:29:59;;;;;;;1.98;0.30;;;;;;;;;;5091863;28;20433;-71
2023/05/14 14:32:24;;;;;;;0.30;0.30;;;;;;;;;;5091588;28;20032;-71
2023/05/14 14:34:50;;;;;;;1.20;0.40;;;;;;;;;;5091774;28;20047;-71
2023/05/14 14:37:15;;;;;;;0.95;0.50;;;;;;;;;;5091137;28;20048;-71